sensor_id;sensor_type;location;lat;lon;timestamp;pressure;altitude;pressure_sealevel;temperature;humidity
6668;BME280;3370;47.712;9.082;2022-11-15T00:00:52;96939.59;;;6.54;100.00
6668;BME280;3370;47.712;9.082;2022-11-15T00:03:22;96942.69;;;6.65;100.00
6668;BME280;3370;47.712;9.082;2022-11-15T00:05:48;96944.22;;;6.43;100.00
6668;BME280;3370;47.712;9.082;2022-11-15T00:08:15;96947.66;;;6.42;100.00
6668;BME280;3370;47.712;9.082;2022-11-15T00:10:41;96956.28;;;6.38;100.00
6668;BME280;3370;47.712;9.082;2022-11-15T00:13:09;96948.78;;;6.33;100.00
6668;BME280;3370;47.712;9.082;2022-11-15T00:15:37;96944.00;;;6.49;100.00
6668;BME280;3370;47.712;9.082;2022-11-15T00:18:04;96935.84;;;6.38;100.00
6668;BME280;3370;47.712;9.082;2022-11-15T00:20:33;96940.25;;;6.32;100.00
6668;BME280;3370;47.712;9.082;2022-11-15T00:22:59;96928.22;;;6.36;100.00
6668;BME280;3370;47.712;9.082;2022-11-15T00:25:25;96927.31;;;6.39;100.00
6668;BME280;3370;47.712;9.082;2022-11-15T00:27:55;96937.44;;;6.42;100.00
6668;BME280;3370;47.712;9.082;2022-11-15T00:30:20;96932.09;;;6.49;100.00
6668;BME280;3370;47.712;9.082;2022-11-15T00:32:46;96936.59;;;6.41;100.00
6668;BME280;3370;47.712;9.082;2022-11-15T00:35:12;96934.06;;;6.40;100.00
6668;BME280;3370;47.712;9.082;2022-11-15T00:37:38;96927.22;;;6.42;100.00
6668;BME280;3370;47.712;9.082;2022-11-15T00:40:04;96918.59;;;6.46;100.00
6668;BME280;3370;47.712;9.082;2022-11-15T00:42:30;96914.47;;;6.42;100.00
6668;BME280;3370;47.712;9.082;2022-11-15T00:44:56;96922.94;;;6.42;100.00
6668;BME280;3370;47.712;9.082;2022-11-15T00:47:22;96927.34;;;6.37;100.00
6668;BME280;3370;47.712;9.082;2022-11-15T00:49:48;96919.63;;;6.40;100.00
6668;BME280;3370;47.712;9.082;2022-11-15T00:52:14;96921.50;;;6.33;100.00
6668;BME280;3370;47.712;9.082;2022-11-15T00:54:39;96926.00;;;6.25;100.00
6668;BME280;3370;47.712;9.082;2022-11-15T00:57:05;96927.69;;;6.26;100.00
6668;BME280;3370;47.712;9.082;2022-11-15T00:59:31;96919.22;;;6.24;100.00
6668;BME280;3370;47.712;9.082;2022-11-15T01:01:57;96920.84;;;6.27;100.00
6668;BME280;3370;47.712;9.082;2022-11-15T01:04:23;96921.88;;;6.21;100.00
6668;BME280;3370;47.712;9.082;2022-11-15T01:06:49;96925.34;;;6.19;100.00
6668;BME280;3370;47.712;9.082;2022-11-15T01:09:14;96914.22;;;6.21;100.00
6668;BME280;3370;47.712;9.082;2022-11-15T01:11:40;96910.09;;;6.17;100.00
6668;BME280;3370;47.712;9.082;2022-11-15T01:14:06;96904.28;;;6.12;100.00
6668;BME280;3370;47.712;9.082;2022-11-15T01:16:32;96910.03;;;6.19;100.00
6668;BME280;3370;47.712;9.082;2022-11-15T01:18:59;96902.50;;;6.14;100.00
6668;BME280;3370;47.712;9.082;2022-11-15T01:21:25;96905.06;;;6.14;100.00
6668;BME280;3370;47.712;9.082;2022-11-15T01:23:56;96898.84;;;6.23;100.00
6668;BME280;3370;47.712;9.082;2022-11-15T01:26:24;96892.06;;;6.22;100.00
6668;BME280;3370;47.712;9.082;2022-11-15T01:28:51;96898.88;;;6.21;100.00
6668;BME280;3370;47.712;9.082;2022-11-15T01:31:19;96893.88;;;6.18;100.00
6668;BME280;3370;47.712;9.082;2022-11-15T01:33:47;96893.06;;;6.16;100.00
6668;BME280;3370;47.712;9.082;2022-11-15T01:36:20;96887.38;;;6.08;100.00
6668;BME280;3370;47.712;9.082;2022-11-15T01:38:53;96887.38;;;6.08;100.00
6668;BME280;3370;47.712;9.082;2022-11-15T01:41:30;96891.69;;;6.06;100.00
6668;BME280;3370;47.712;9.082;2022-11-15T01:44:31;96892.22;;;6.17;100.00
6668;BME280;3370;47.712;9.082;2022-11-15T01:47:00;96883.75;;;6.15;100.00
6668;BME280;3370;47.712;9.082;2022-11-15T01:49:28;96879.53;;;6.14;100.00
6668;BME280;3370;47.712;9.082;2022-11-15T01:51:57;96877.91;;;6.11;100.00
6668;BME280;3370;47.712;9.082;2022-11-15T01:54:23;96873.78;;;6.07;100.00
6668;BME280;3370;47.712;9.082;2022-11-15T01:56:59;96873.78;;;6.07;100.00
6668;BME280;3370;47.712;9.082;2022-11-15T01:59:27;96862.59;;;6.11;100.00
6668;BME280;3370;47.712;9.082;2022-11-15T02:01:53;96861.06;;;6.06;100.00
6668;BME280;3370;47.712;9.082;2022-11-15T02:04:26;96862.16;;;5.97;100.00
6668;BME280;3370;47.712;9.082;2022-11-15T02:06:53;96865.59;;;5.94;100.00
6668;BME280;3370;47.712;9.082;2022-11-15T02:09:19;96861.41;;;5.93;100.00
6668;BME280;3370;47.712;9.082;2022-11-15T02:11:46;96852.00;;;5.95;100.00
6668;BME280;3370;47.712;9.082;2022-11-15T02:14:14;96852.06;;;5.92;100.00
6668;BME280;3370;47.712;9.082;2022-11-15T02:28:31;96839.34;;;5.91;100.00
6668;BME280;3370;47.712;9.082;2022-11-15T02:31:58;96838.66;;;5.86;100.00
6668;BME280;3370;47.712;9.082;2022-11-15T02:43:48;96817.47;;;5.84;100.00
6668;BME280;3370;47.712;9.082;2022-11-15T02:46:38;96817.38;;;5.85;100.00
6668;BME280;3370;47.712;9.082;2022-11-15T02:49:29;96826.22;;;5.75;100.00
6668;BME280;3370;47.712;9.082;2022-11-15T02:51:56;96822.00;;;5.44;100.00
6668;BME280;3370;47.712;9.082;2022-11-15T02:54:26;96819.75;;;5.33;100.00
6668;BME280;3370;47.712;9.082;2022-11-15T02:56:58;96821.38;;;5.36;100.00
6668;BME280;3370;47.712;9.082;2022-11-15T03:02:41;96821.06;;;5.47;100.00
6668;BME280;3370;47.712;9.082;2022-11-15T03:08:32;96811.38;;;5.58;100.00
6668;BME280;3370;47.712;9.082;2022-11-15T03:11:11;96808.00;;;5.57;100.00
6668;BME280;3370;47.712;9.082;2022-11-15T03:22:21;96805.41;;;5.59;100.00
6668;BME280;3370;47.712;9.082;2022-11-15T03:24:56;96799.34;;;5.63;100.00
6668;BME280;3370;47.712;9.082;2022-11-15T03:27:26;96801.56;;;5.74;100.00
6668;BME280;3370;47.712;9.082;2022-11-15T03:30:06;96804.44;;;5.63;100.00
6668;BME280;3370;47.712;9.082;2022-11-15T03:32:44;96801.13;;;5.60;100.00
6668;BME280;3370;47.712;9.082;2022-11-15T03:35:16;96789.78;;;5.70;100.00
6668;BME280;3370;47.712;9.082;2022-11-15T03:38:25;96791.56;;;5.68;100.00
6668;BME280;3370;47.712;9.082;2022-11-15T03:41:00;96790.59;;;5.72;100.00
6668;BME280;3370;47.712;9.082;2022-11-15T03:43:47;96795.72;;;5.70;100.00
6668;BME280;3370;47.712;9.082;2022-11-15T03:46:34;96786.34;;;5.71;100.00
6668;BME280;3370;47.712;9.082;2022-11-15T03:49:11;96779.56;;;5.71;100.00
6668;BME280;3370;47.712;9.082;2022-11-15T03:51:39;96781.34;;;5.68;100.00
6668;BME280;3370;47.712;9.082;2022-11-15T03:54:05;96781.06;;;5.77;100.00
6668;BME280;3370;47.712;9.082;2022-11-15T03:56:31;96782.66;;;5.81;100.00
6668;BME280;3370;47.712;9.082;2022-11-15T03:58:57;96782.44;;;5.87;100.00
6668;BME280;3370;47.712;9.082;2022-11-15T04:01:23;96771.75;;;5.76;100.00
6668;BME280;3370;47.712;9.082;2022-11-15T04:03:49;96774.41;;;5.73;100.00
6668;BME280;3370;47.712;9.082;2022-11-15T04:06:15;96780.88;;;5.83;100.00
6668;BME280;3370;47.712;9.082;2022-11-15T04:08:41;96767.88;;;5.91;100.00
6668;BME280;3370;47.712;9.082;2022-11-15T04:11:07;96766.69;;;5.74;100.00
6668;BME280;3370;47.712;9.082;2022-11-15T04:13:33;96765.69;;;5.80;100.00
6668;BME280;3370;47.712;9.082;2022-11-15T04:15:59;96761.38;;;5.82;100.00
6668;BME280;3370;47.712;9.082;2022-11-15T04:18:24;96758.94;;;5.78;100.00
6668;BME280;3370;47.712;9.082;2022-11-15T04:20:50;96769.03;;;5.82;100.00
6668;BME280;3370;47.712;9.082;2022-11-15T04:23:34;96769.09;;;5.79;100.00
6668;BME280;3370;47.712;9.082;2022-11-15T04:26:21;96763.91;;;5.82;100.00
6668;BME280;3370;47.712;9.082;2022-11-15T04:28:48;96770.59;;;5.86;100.00
6668;BME280;3370;47.712;9.082;2022-11-15T04:31:32;96770.59;;;5.86;100.00
6668;BME280;3370;47.712;9.082;2022-11-15T04:33:58;96775.00;;;5.81;100.00
6668;BME280;3370;47.712;9.082;2022-11-15T04:36:25;96761.56;;;5.74;100.00
6668;BME280;3370;47.712;9.082;2022-11-15T04:39:09;96766.47;;;5.82;100.00
6668;BME280;3370;47.712;9.082;2022-11-15T04:41:35;96768.03;;;5.86;100.00
6668;BME280;3370;47.712;9.082;2022-11-15T04:44:01;96770.69;;;5.83;100.00
6668;BME280;3370;47.712;9.082;2022-11-15T04:46:27;96760.66;;;5.77;100.00
6668;BME280;3370;47.712;9.082;2022-11-15T04:48:53;96752.03;;;5.81;100.00
6668;BME280;3370;47.712;9.082;2022-11-15T04:51:20;96759.59;;;5.84;100.00
6668;BME280;3370;47.712;9.082;2022-11-15T04:53:46;96758.63;;;5.88;100.00
6668;BME280;3370;47.712;9.082;2022-11-15T04:56:12;96762.03;;;5.87;100.00
6668;BME280;3370;47.712;9.082;2022-11-15T04:58:38;96758.81;;;5.82;100.00
6668;BME280;3370;47.712;9.082;2022-11-15T05:01:11;96756.25;;;5.82;100.00
6668;BME280;3370;47.712;9.082;2022-11-15T05:03:40;96758.81;;;5.82;100.00
6668;BME280;3370;47.712;9.082;2022-11-15T05:06:24;96755.38;;;5.83;100.00
6668;BME280;3370;47.712;9.082;2022-11-15T05:08:51;96762.94;;;5.86;100.00
6668;BME280;3370;47.712;9.082;2022-11-15T05:11:17;96764.69;;;5.84;100.00
6668;BME280;3370;47.712;9.082;2022-11-15T05:13:42;96762.31;;;5.78;100.00
6668;BME280;3370;47.712;9.082;2022-11-15T05:16:08;96751.19;;;5.81;100.00
6668;BME280;3370;47.712;9.082;2022-11-15T05:18:34;96758.63;;;5.88;100.00
6668;BME280;3370;47.712;9.082;2022-11-15T05:21:09;96760.19;;;5.92;100.00
6668;BME280;3370;47.712;9.082;2022-11-15T05:23:35;96750.75;;;5.94;100.00
6668;BME280;3370;47.712;9.082;2022-11-15T05:26:03;96741.44;;;5.93;100.00
6668;BME280;3370;47.712;9.082;2022-11-15T05:28:30;96742.34;;;5.91;100.00
6668;BME280;3370;47.712;9.082;2022-11-15T05:31:07;96740.53;;;5.96;100.00
6668;BME280;3370;47.712;9.082;2022-11-15T05:33:35;96733.72;;;5.97;100.00
6668;BME280;3370;47.712;9.082;2022-11-15T05:36:27;96739.75;;;5.92;100.00
6668;BME280;3370;47.712;9.082;2022-11-15T05:38:54;96734.78;;;5.89;100.00
6668;BME280;3370;47.712;9.082;2022-11-15T05:41:45;96734.09;;;5.84;100.00
6668;BME280;3370;47.712;9.082;2022-11-15T05:44:15;96742.34;;;5.91;100.00
6668;BME280;3370;47.712;9.082;2022-11-15T05:46:43;96733.63;;;6.00;100.00
6668;BME280;3370;47.712;9.082;2022-11-15T05:49:15;96733.88;;;5.90;100.00
6668;BME280;3370;47.712;9.082;2022-11-15T05:51:43;96727.16;;;5.88;100.00
6668;BME280;3370;47.712;9.082;2022-11-15T05:54:10;96733.19;;;5.85;100.00
6668;BME280;3370;47.712;9.082;2022-11-15T05:56:37;96723.75;;;5.87;100.00
6668;BME280;3370;47.712;9.082;2022-11-15T05:59:04;96734.59;;;5.95;100.00
6668;BME280;3370;47.712;9.082;2022-11-15T06:01:30;96734.72;;;5.91;100.00
6668;BME280;3370;47.712;9.082;2022-11-15T06:03:56;96732.34;;;5.85;100.00
6668;BME280;3370;47.712;9.082;2022-11-15T06:06:22;96739.06;;;5.87;100.00
6668;BME280;3370;47.712;9.082;2022-11-15T06:08:48;96737.16;;;5.95;100.00
6668;BME280;3370;47.712;9.082;2022-11-15T06:11:14;96734.59;;;5.95;100.00
6668;BME280;3370;47.712;9.082;2022-11-15T06:13:40;96741.63;;;5.87;100.00
6668;BME280;3370;47.712;9.082;2022-11-15T06:16:06;96733.06;;;5.90;100.00
6668;BME280;3370;47.712;9.082;2022-11-15T06:18:33;96735.69;;;5.87;100.00
6668;BME280;3370;47.712;9.082;2022-11-15T06:21:00;96725.66;;;5.82;100.00
6668;BME280;3370;47.712;9.082;2022-11-15T06:23:27;96727.25;;;5.85;100.00
6668;BME280;3370;47.712;9.082;2022-11-15T06:25:57;96726.22;;;5.90;100.00
6668;BME280;3370;47.712;9.082;2022-11-15T06:28:23;96718.53;;;5.92;100.00
6668;BME280;3370;47.712;9.082;2022-11-15T06:30:49;96730.47;;;5.91;100.00
6668;BME280;3370;47.712;9.082;2022-11-15T06:33:14;96717.56;;;5.94;100.00
6668;BME280;3370;47.712;9.082;2022-11-15T06:35:40;96724.56;;;5.89;100.00
6668;BME280;3370;47.712;9.082;2022-11-15T06:38:09;96726.31;;;5.87;100.00
6668;BME280;3370;47.712;9.082;2022-11-15T06:40:38;96721.91;;;5.92;100.00
6668;BME280;3370;47.712;9.082;2022-11-15T06:43:05;96729.56;;;5.92;100.00
6668;BME280;3370;47.712;9.082;2022-11-15T06:45:31;96726.22;;;5.90;100.00
6668;BME280;3370;47.712;9.082;2022-11-15T06:47:58;96722.81;;;5.91;100.00
6668;BME280;3370;47.712;9.082;2022-11-15T06:50:24;96723.72;;;5.89;100.00
6668;BME280;3370;47.712;9.082;2022-11-15T06:52:50;96726.25;;;5.89;100.00
6668;BME280;3370;47.712;9.082;2022-11-15T06:55:16;96720.06;;;5.98;100.00
6668;BME280;3370;47.712;9.082;2022-11-15T06:57:50;96727.69;;;5.99;100.00
6668;BME280;3370;47.712;9.082;2022-11-15T07:00:20;96715.75;;;6.00;100.00
6668;BME280;3370;47.712;9.082;2022-11-15T07:02:47;96718.13;;;6.06;100.00
6668;BME280;3370;47.712;9.082;2022-11-15T07:05:14;96717.03;;;6.13;100.00
6668;BME280;3370;47.712;9.082;2022-11-15T07:07:40;96722.53;;;6.27;100.00
6668;BME280;3370;47.712;9.082;2022-11-15T07:10:07;96716.50;;;6.03;100.00
6668;BME280;3370;47.712;9.082;2022-11-15T07:12:33;96724.75;;;6.11;100.00
6668;BME280;3370;47.712;9.082;2022-11-15T07:14:59;96716.59;;;6.00;100.00
6668;BME280;3370;47.712;9.082;2022-11-15T07:17:25;96727.34;;;5.82;100.00
6668;BME280;3370;47.712;9.082;2022-11-15T07:19:51;96728.28;;;5.79;100.00
6668;BME280;3370;47.712;9.082;2022-11-15T07:22:16;96730.06;;;5.77;100.00
6668;BME280;3370;47.712;9.082;2022-11-15T07:24:42;96732.03;;;5.67;100.00
6668;BME280;3370;47.712;9.082;2022-11-15T07:27:08;96724.13;;;5.76;100.00
6668;BME280;3370;47.712;9.082;2022-11-15T07:29:34;96722.53;;;6.01;100.00
6668;BME280;3370;47.712;9.082;2022-11-15T07:32:00;96716.84;;;5.91;100.00
6668;BME280;3370;47.712;9.082;2022-11-15T07:34:26;96714.53;;;5.83;100.00
6668;BME280;3370;47.712;9.082;2022-11-15T07:36:52;96716.22;;;5.84;100.00
6668;BME280;3370;47.712;9.082;2022-11-15T07:39:18;96715.03;;;5.94;100.00
6668;BME280;3370;47.712;9.082;2022-11-15T07:41:44;96716.75;;;5.94;100.00
6668;BME280;3370;47.712;9.082;2022-11-15T07:44:10;96723.59;;;5.93;100.00
6668;BME280;3370;47.712;9.082;2022-11-15T07:46:36;96716.50;;;5.75;100.00
6668;BME280;3370;47.712;9.082;2022-11-15T07:49:02;96714.81;;;5.74;100.00
6668;BME280;3370;47.712;9.082;2022-11-15T07:51:27;96715.31;;;5.85;100.00
6668;BME280;3370;47.712;9.082;2022-11-15T07:53:53;96702.13;;;6.01;100.00
6668;BME280;3370;47.712;9.082;2022-11-15T07:56:19;96701.81;;;6.10;100.00
6668;BME280;3370;47.712;9.082;2022-11-15T07:58:46;96704.94;;;6.18;100.00
6668;BME280;3370;47.712;9.082;2022-11-15T08:01:12;96707.88;;;6.32;100.00
6668;BME280;3370;47.712;9.082;2022-11-15T08:03:39;96708.91;;;6.27;100.00
6668;BME280;3370;47.712;9.082;2022-11-15T08:06:05;96699.56;;;6.27;100.00
6668;BME280;3370;47.712;9.082;2022-11-15T08:08:31;96686.34;;;6.40;100.00
6668;BME280;3370;47.712;9.082;2022-11-15T08:11:00;96691.34;;;6.43;100.00
6668;BME280;3370;47.712;9.082;2022-11-15T08:13:26;96690.66;;;6.38;100.00
6668;BME280;3370;47.712;9.082;2022-11-15T08:15:56;96691.44;;;6.40;100.00
6668;BME280;3370;47.712;9.082;2022-11-15T08:18:22;96686.34;;;6.40;100.00
6668;BME280;3370;47.712;9.082;2022-11-15T08:20:48;96682.75;;;6.45;100.00
6668;BME280;3370;47.712;9.082;2022-11-15T08:23:14;96681.91;;;6.45;100.00
6668;BME280;3370;47.712;9.082;2022-11-15T08:25:40;96685.25;;;6.47;100.00
6668;BME280;3370;47.712;9.082;2022-11-15T08:28:07;96678.25;;;6.52;100.00
6668;BME280;3370;47.712;9.082;2022-11-15T08:30:38;96687.44;;;6.58;100.00
6668;BME280;3370;47.712;9.082;2022-11-15T08:33:11;96678.50;;;6.69;100.00
6668;BME280;3370;47.712;9.082;2022-11-15T08:35:37;96685.72;;;6.58;100.00
6668;BME280;3370;47.712;9.082;2022-11-15T08:38:03;96682.44;;;6.55;100.00
6668;BME280;3370;47.712;9.082;2022-11-15T08:40:29;96679.81;;;6.56;100.00
6668;BME280;3370;47.712;9.082;2022-11-15T08:42:54;96673.97;;;6.52;100.00
6668;BME280;3370;47.712;9.082;2022-11-15T08:45:20;96663.34;;;6.65;100.00
6668;BME280;3370;47.712;9.082;2022-11-15T08:47:46;96667.28;;;6.74;100.00
6668;BME280;3370;47.712;9.082;2022-11-15T08:50:12;96662.63;;;6.61;100.00
6668;BME280;3370;47.712;9.082;2022-11-15T08:52:38;96660.81;;;6.63;100.00
6668;BME280;3370;47.712;9.082;2022-11-15T08:55:04;96661.31;;;6.75;100.00
6668;BME280;3370;47.712;9.082;2022-11-15T08:57:30;96672.59;;;6.93;100.00
6668;BME280;3370;47.712;9.082;2022-11-15T08:59:57;96682.19;;;6.86;100.00
6668;BME280;3370;47.712;9.082;2022-11-15T09:02:22;96674.50;;;6.62;100.00
6668;BME280;3370;47.712;9.082;2022-11-15T09:04:49;96669.59;;;6.56;100.00
6668;BME280;3370;47.712;9.082;2022-11-15T09:07:15;96667.72;;;6.61;100.00
6668;BME280;3370;47.712;9.082;2022-11-15T09:09:41;96672.41;;;6.74;100.00
6668;BME280;3370;47.712;9.082;2022-11-15T09:12:07;96665.75;;;6.93;100.00
6668;BME280;3370;47.712;9.082;2022-11-15T09:14:34;96662.56;;;6.86;100.00
6668;BME280;3370;47.712;9.082;2022-11-15T09:17:00;96667.56;;;6.89;100.00
6668;BME280;3370;47.712;9.082;2022-11-15T09:19:26;96663.28;;;7.14;100.00
6668;BME280;3370;47.712;9.082;2022-11-15T09:21:52;96663.94;;;7.19;100.00
6668;BME280;3370;47.712;9.082;2022-11-15T09:24:18;96664.06;;;6.92;100.00
6668;BME280;3370;47.712;9.082;2022-11-15T09:26:44;96667.00;;;6.81;100.00
6668;BME280;3370;47.712;9.082;2022-11-15T09:29:10;96662.28;;;6.70;100.00
6668;BME280;3370;47.712;9.082;2022-11-15T09:31:36;96668.63;;;6.60;100.00
6668;BME280;3370;47.712;9.082;2022-11-15T09:34:02;96668.22;;;6.47;100.00
6668;BME280;3370;47.712;9.082;2022-11-15T09:36:27;96669.44;;;6.61;100.00
6668;BME280;3370;47.712;9.082;2022-11-15T09:38:53;96662.19;;;6.74;100.00
6668;BME280;3370;47.712;9.082;2022-11-15T09:50:16;96671.41;;;6.78;100.00
6668;BME280;3370;47.712;9.082;2022-11-15T09:52:44;96661.94;;;6.80;100.00
6668;BME280;3370;47.712;9.082;2022-11-15T09:55:13;96658.94;;;6.92;100.00
6668;BME280;3370;47.712;9.082;2022-11-15T09:58:26;96656.19;;;6.98;100.00
6668;BME280;3370;47.712;9.082;2022-11-15T10:00:55;96650.38;;;7.17;100.00
6668;BME280;3370;47.712;9.082;2022-11-15T10:03:33;96653.34;;;7.28;100.00
6668;BME280;3370;47.712;9.082;2022-11-15T10:06:05;96653.41;;;7.26;100.00
6668;BME280;3370;47.712;9.082;2022-11-15T10:08:48;96655.16;;;7.26;100.00
6668;BME280;3370;47.712;9.082;2022-11-15T10:11:22;96655.38;;;7.20;100.00
6668;BME280;3370;47.712;9.082;2022-11-15T10:13:52;96653.22;;;7.09;100.00
6668;BME280;3370;47.712;9.082;2022-11-15T10:27:34;96623.28;;;7.13;100.00
6668;BME280;3370;47.712;9.082;2022-11-15T10:30:00;96614.13;;;7.29;100.00
6668;BME280;3370;47.712;9.082;2022-11-15T10:32:26;96617.44;;;7.31;100.00
6668;BME280;3370;47.712;9.082;2022-11-15T10:34:52;96619.81;;;7.14;100.00
6668;BME280;3370;47.712;9.082;2022-11-15T10:37:29;96621.44;;;7.16;100.00
6668;BME280;3370;47.712;9.082;2022-11-15T10:40:19;96609.81;;;7.07;100.00
6668;BME280;3370;47.712;9.082;2022-11-15T10:42:45;96618.69;;;7.21;100.00
6668;BME280;3370;47.712;9.082;2022-11-15T10:45:26;96615.00;;;7.28;100.00
6668;BME280;3370;47.712;9.082;2022-11-15T10:47:52;96613.81;;;7.37;100.00
6668;BME280;3370;47.712;9.082;2022-11-15T10:50:31;96611.13;;;7.40;100.00
6668;BME280;3370;47.712;9.082;2022-11-15T10:52:58;96617.38;;;7.33;100.00
6668;BME280;3370;47.712;9.082;2022-11-15T10:55:31;96623.28;;;7.13;100.00
6668;BME280;3370;47.712;9.082;2022-11-15T11:00:46;96611.66;;;7.26;100.00
6668;BME280;3370;47.712;9.082;2022-11-15T11:03:34;96604.94;;;7.45;100.00
6668;BME280;3370;47.712;9.082;2022-11-15T11:06:16;96597.13;;;7.48;100.00
6668;BME280;3370;47.712;9.082;2022-11-15T11:08:57;96588.84;;;7.64;100.00
6668;BME280;3370;47.712;9.082;2022-11-15T11:11:25;96577.66;;;7.66;100.00
6668;BME280;3370;47.712;9.082;2022-11-15T11:14:23;96571.44;;;7.72;100.00
6668;BME280;3370;47.712;9.082;2022-11-15T11:17:13;96575.16;;;7.65;100.00
6668;BME280;3370;47.712;9.082;2022-11-15T11:25:34;96570.16;;;8.03;100.00
6668;BME280;3370;47.712;9.082;2022-11-15T11:42:48;96568.38;;;8.05;100.00
6668;BME280;3370;47.712;9.082;2022-11-15T11:46:25;96556.78;;;8.17;100.00
6668;BME280;3370;47.712;9.082;2022-11-15T11:48:52;96560.38;;;8.32;100.00
6668;BME280;3370;47.712;9.082;2022-11-15T11:51:27;96555.78;;;8.40;100.00
6668;BME280;3370;47.712;9.082;2022-11-15T11:54:22;96556.84;;;8.55;100.00
6668;BME280;3370;47.712;9.082;2022-11-15T11:56:50;96555.72;;;8.60;100.00
6668;BME280;3370;47.712;9.082;2022-11-15T11:59:41;96554.00;;;8.80;100.00
6668;BME280;3370;47.712;9.082;2022-11-15T12:02:35;96549.50;;;8.85;100.00
6668;BME280;3370;47.712;9.082;2022-11-15T12:05:15;96534.38;;;8.98;100.00
6668;BME280;3370;47.712;9.082;2022-11-15T12:07:44;96530.06;;;8.98;100.00
6668;BME280;3370;47.712;9.082;2022-11-15T12:10:28;96533.94;;;9.07;100.00
6668;BME280;3370;47.712;9.082;2022-11-15T12:13:06;96530.63;;;9.23;99.35
6668;BME280;3370;47.712;9.082;2022-11-15T12:16:17;96529.50;;;9.11;99.33
6668;BME280;3370;47.712;9.082;2022-11-15T12:18:35;96524.22;;;9.14;100.00
6668;BME280;3370;47.712;9.082;2022-11-15T12:21:39;96522.41;;;9.16;100.00
6668;BME280;3370;47.712;9.082;2022-11-15T12:27:00;96511.72;;;9.25;100.00
6668;BME280;3370;47.712;9.082;2022-11-15T12:29:36;96520.38;;;9.05;100.00
6668;BME280;3370;47.712;9.082;2022-11-15T12:32:05;96515.88;;;8.91;100.00
6668;BME280;3370;47.712;9.082;2022-11-15T12:34:41;96501.63;;;8.86;100.00
6668;BME280;3370;47.712;9.082;2022-11-15T12:42:56;96480.47;;;8.99;100.00
6668;BME280;3370;47.712;9.082;2022-11-15T13:06:58;96440.00;;;8.87;100.00
6668;BME280;3370;47.712;9.082;2022-11-15T13:12:07;96447.22;;;8.79;100.00
6668;BME280;3370;47.712;9.082;2022-11-15T13:17:20;96436.69;;;8.85;100.00
6668;BME280;3370;47.712;9.082;2022-11-15T13:23:13;96417.25;;;8.98;100.00
6668;BME280;3370;47.712;9.082;2022-11-15T13:30:57;96399.75;;;9.07;100.00
6668;BME280;3370;47.712;9.082;2022-11-15T13:33:41;96404.72;;;9.10;100.00
6668;BME280;3370;47.712;9.082;2022-11-15T13:36:24;96398.63;;;9.12;100.00
6668;BME280;3370;47.712;9.082;2022-11-15T13:41:50;96404.88;;;9.24;100.00
6668;BME280;3370;47.712;9.082;2022-11-15T13:44:30;96407.44;;;9.24;100.00
6668;BME280;3370;47.712;9.082;2022-11-15T13:47:07;96404.31;;;9.35;100.00
6668;BME280;3370;47.712;9.082;2022-11-15T13:49:37;96402.63;;;9.18;100.00
6668;BME280;3370;47.712;9.082;2022-11-15T13:52:07;96399.59;;;9.10;100.00
6668;BME280;3370;47.712;9.082;2022-11-15T13:54:42;96392.97;;;9.06;100.00
6668;BME280;3370;47.712;9.082;2022-11-15T13:57:25;96394.78;;;9.04;100.00
6668;BME280;3370;47.712;9.082;2022-11-15T13:59:56;96383.84;;;9.00;100.00
6668;BME280;3370;47.712;9.082;2022-11-15T14:02:32;96381.47;;;8.95;100.00
6668;BME280;3370;47.712;9.082;2022-11-15T14:05:16;96376.47;;;8.94;100.00
6668;BME280;3370;47.712;9.082;2022-11-15T14:07:58;96371.41;;;8.92;100.00
6668;BME280;3370;47.712;9.082;2022-11-15T14:10:35;96366.28;;;8.92;100.00
6668;BME280;3370;47.712;9.082;2022-11-15T14:13:03;96369.59;;;8.94;100.00
6668;BME280;3370;47.712;9.082;2022-11-15T14:15:30;96370.34;;;8.96;100.00
6668;BME280;3370;47.712;9.082;2022-11-15T14:17:58;96359.19;;;8.97;100.00
6668;BME280;3370;47.712;9.082;2022-11-15T14:20:35;96357.38;;;8.99;100.00
6668;BME280;3370;47.712;9.082;2022-11-15T14:23:26;96351.38;;;8.99;100.00
6668;BME280;3370;47.712;9.082;2022-11-15T14:25:57;96348.81;;;8.99;100.00
6668;BME280;3370;47.712;9.082;2022-11-15T14:30:51;96339.50;;;8.98;100.00
6668;BME280;3370;47.712;9.082;2022-11-15T14:33:33;96341.25;;;8.97;100.00
6668;BME280;3370;47.712;9.082;2022-11-15T14:38:36;96336.19;;;8.96;100.00
6668;BME280;3370;47.712;9.082;2022-11-15T14:41:02;96330.06;;;8.98;100.00
6668;BME280;3370;47.712;9.082;2022-11-15T14:43:27;96325.94;;;8.96;100.00
6668;BME280;3370;47.712;9.082;2022-11-15T14:45:53;96325.94;;;8.96;100.00
6668;BME280;3370;47.712;9.082;2022-11-15T14:48:19;96330.38;;;8.92;100.00
6668;BME280;3370;47.712;9.082;2022-11-15T14:50:45;96326.22;;;8.90;100.00
6668;BME280;3370;47.712;9.082;2022-11-15T14:53:16;96327.81;;;8.92;100.00
6668;BME280;3370;47.712;9.082;2022-11-15T14:55:43;96325.53;;;8.86;100.00
6668;BME280;3370;47.712;9.082;2022-11-15T14:58:09;96322.22;;;8.84;100.00
6668;BME280;3370;47.712;9.082;2022-11-15T15:00:40;96322.38;;;8.81;100.00
6668;BME280;3370;47.712;9.082;2022-11-15T15:03:07;96325.09;;;8.78;100.00
6668;BME280;3370;47.712;9.082;2022-11-15T15:05:40;96319.22;;;8.76;100.00
6668;BME280;3370;47.712;9.082;2022-11-15T15:08:06;96319.91;;;8.79;100.00
6668;BME280;3370;47.712;9.082;2022-11-15T15:10:38;96311.38;;;8.79;100.00
6668;BME280;3370;47.712;9.082;2022-11-15T15:13:08;96304.41;;;8.81;100.00
6668;BME280;3370;47.712;9.082;2022-11-15T15:15:37;96307.00;;;8.81;100.00
6668;BME280;3370;47.712;9.082;2022-11-15T15:18:04;96297.41;;;8.85;100.00
6668;BME280;3370;47.712;9.082;2022-11-15T15:20:35;96294.16;;;8.81;100.00
6668;BME280;3370;47.712;9.082;2022-11-15T15:23:02;96290.38;;;8.88;100.00
6668;BME280;3370;47.712;9.082;2022-11-15T15:25:31;96286.66;;;8.78;100.00
6668;BME280;3370;47.712;9.082;2022-11-15T15:27:59;96280.03;;;8.74;100.00
6668;BME280;3370;47.712;9.082;2022-11-15T15:30:27;96279.84;;;8.77;100.00
6668;BME280;3370;47.712;9.082;2022-11-15T15:32:54;96276.41;;;8.78;100.00
6668;BME280;3370;47.712;9.082;2022-11-15T15:35:20;96275.66;;;8.76;100.00
6668;BME280;3370;47.712;9.082;2022-11-15T15:37:48;96275.13;;;8.69;100.00
6668;BME280;3370;47.712;9.082;2022-11-15T15:40:20;96279.63;;;8.64;100.00
6668;BME280;3370;47.712;9.082;2022-11-15T15:42:48;96270.66;;;8.55;100.00
6668;BME280;3370;47.712;9.082;2022-11-15T15:45:15;96264.72;;;8.55;100.00
6668;BME280;3370;47.712;9.082;2022-11-15T15:47:42;96255.47;;;8.52;100.00
6668;BME280;3370;47.712;9.082;2022-11-15T15:50:25;96245.34;;;8.49;100.00
6668;BME280;3370;47.712;9.082;2022-11-15T15:52:54;96240.22;;;8.49;100.00